createdAt,value
2018-11-27T00:00:06.118Z,101271.63
2018-11-27T00:02:47.189Z,101270.90
2018-11-27T00:05:28.319Z,101272.72
2018-11-27T00:08:09.000Z,101277.73
2018-11-27T00:10:50.072Z,101278.08
2018-11-27T00:13:31.079Z,101282.03
2018-11-27T00:16:12.185Z,101284.09
2018-11-27T00:18:53.151Z,101283.61
2018-11-27T00:21:33.865Z,101275.09
2018-11-27T00:24:15.393Z,101280.97
2018-11-27T00:26:56.443Z,101289.93
2018-11-27T00:29:37.514Z,101293.94
2018-11-27T00:32:18.387Z,101299.08
2018-11-27T00:34:59.452Z,101297.63
2018-11-27T00:37:40.436Z,101300.53
2018-11-27T00:40:21.645Z,101304.67
2018-11-27T00:43:02.766Z,101305.55
2018-11-27T00:45:43.844Z,101310.34
2018-11-27T00:48:25.642Z,101313.45
2018-11-27T00:51:06.827Z,101321.84
2018-11-27T00:53:47.627Z,101326.98
2018-11-27T00:56:29.153Z,101326.98
2018-11-27T00:59:10.071Z,101330.58
2018-11-27T01:01:51.400Z,101333.95
2018-11-27T01:04:32.321Z,101340.16
2018-11-27T01:07:14.030Z,101341.95
2018-11-27T01:09:54.587Z,101349.16
2018-11-27T01:12:35.507Z,101350.08
2018-11-27T01:15:16.723Z,101354.22
2018-11-27T01:17:58.116Z,101360.56
2018-11-27T01:20:39.042Z,101370.53
2018-11-27T01:23:20.385Z,101378.20
2018-11-27T01:26:01.320Z,101378.56
2018-11-27T01:28:42.451Z,101388.81
2018-11-27T01:31:24.050Z,101396.83
2018-11-27T01:34:05.187Z,101403.63
2018-11-27T01:36:46.756Z,101403.44
2018-11-27T01:43:38.596Z,101419.52
2018-11-27T01:46:19.401Z,101422.55
2018-11-27T01:48:59.873Z,101423.77
2018-11-27T01:51:40.923Z,101427.69
2018-11-27T01:54:22.261Z,101429.45
2018-11-27T01:57:03.706Z,101435.41
2018-11-27T02:02:28.887Z,101439.80
2018-11-27T02:05:09.799Z,101446.16
2018-11-27T02:07:51.318Z,101450.11
2018-11-27T02:10:32.384Z,101460.00
2018-11-27T02:13:13.593Z,101461.27
2018-11-27T02:15:54.874Z,101466.70
2018-11-27T02:18:36.000Z,101466.47
2018-11-27T02:21:17.433Z,101477.55
2018-11-27T02:23:58.919Z,101480.56
2018-11-27T02:26:40.144Z,101480.05
2018-11-27T02:29:22.232Z,101486.45
2018-11-27T02:32:03.312Z,101491.41
2018-11-27T02:34:45.118Z,101490.35
2018-11-27T02:37:26.046Z,101497.83
2018-11-27T02:40:06.758Z,101503.70
2018-11-27T02:42:47.227Z,101505.64
2018-11-27T02:45:28.647Z,101513.69
2018-11-27T02:48:09.514Z,101520.41
2018-11-27T02:50:50.908Z,101529.14
2018-11-27T02:53:31.487Z,101529.95
2018-11-27T02:56:12.921Z,101529.53
2018-11-27T02:58:53.752Z,101535.76
2018-11-27T03:01:35.677Z,101538.91
2018-11-27T03:04:16.955Z,101537.77
2018-11-27T03:06:57.757Z,101539.77
2018-11-27T03:09:39.229Z,101535.78
2018-11-27T03:12:19.958Z,101544.12
2018-11-27T03:15:01.152Z,101547.05
2018-11-27T03:17:41.924Z,101542.64
2018-11-27T03:20:23.081Z,101545.42
2018-11-27T03:23:04.082Z,101545.77
2018-11-27T03:25:45.004Z,101544.11
2018-11-27T03:28:26.001Z,101543.04
2018-11-27T03:31:06.888Z,101544.88
2018-11-27T03:33:47.871Z,101551.83
2018-11-27T03:36:28.844Z,101546.60
2018-11-27T03:39:09.758Z,101544.18
2018-11-27T03:41:51.465Z,101543.39
2018-11-27T03:44:32.323Z,101540.59
2018-11-27T03:47:14.000Z,101543.30
2018-11-27T03:49:54.912Z,101537.59
2018-11-27T03:52:36.066Z,101542.08
2018-11-27T03:55:17.586Z,101536.05
2018-11-27T03:57:58.913Z,101533.64
2018-11-27T04:00:40.115Z,101544.05
2018-11-27T04:03:21.389Z,101538.33
2018-11-27T04:06:02.242Z,101531.98
2018-11-27T04:08:43.839Z,101537.35
2018-11-27T04:11:25.150Z,101528.41
2018-11-27T04:14:06.090Z,101523.11
2018-11-27T04:16:46.760Z,101519.08
2018-11-27T04:23:52.665Z,101510.41
2018-11-27T04:26:33.206Z,101515.45
2018-11-27T04:29:14.601Z,101514.93
2018-11-27T04:31:55.165Z,101511.18
2018-11-27T04:34:36.824Z,101505.36
2018-11-27T04:37:17.806Z,101512.36
2018-11-27T04:39:58.731Z,101498.28
2018-11-27T04:42:39.680Z,101494.67
2018-11-27T04:45:20.929Z,101495.56
2018-11-27T04:48:01.631Z,101491.58
2018-11-27T04:50:42.883Z,101487.44
2018-11-27T04:53:23.847Z,101484.44
2018-11-27T04:56:05.151Z,101488.50
2018-11-27T04:58:46.121Z,101488.06
2018-11-27T05:01:27.359Z,101482.20
2018-11-27T05:04:08.161Z,101479.95
2018-11-27T05:06:49.130Z,101470.33
2018-11-27T05:09:30.315Z,101459.55
2018-11-27T05:12:11.201Z,101451.70
2018-11-27T05:14:52.478Z,101454.31
2018-11-27T05:17:33.596Z,101451.69
2018-11-27T05:20:14.402Z,101442.51
2018-11-27T05:22:55.684Z,101441.06
2018-11-27T05:29:49.453Z,101428.73
2018-11-27T05:32:30.435Z,101427.92
2018-11-27T05:35:11.681Z,101410.34
2018-11-27T05:37:52.522Z,101415.17
2018-11-27T05:40:33.940Z,101403.13
2018-11-27T05:43:15.169Z,101405.19
2018-11-27T05:45:56.476Z,101397.74
2018-11-27T05:48:36.880Z,101394.42
2018-11-27T05:51:17.755Z,101388.88
2018-11-27T05:53:58.733Z,101386.09
2018-11-27T05:56:39.885Z,101380.70
2018-11-27T05:59:21.275Z,101377.39
2018-11-27T06:02:02.573Z,101369.13
2018-11-27T06:04:43.244Z,101362.64
2018-11-27T06:07:24.652Z,101352.93
2018-11-27T06:10:05.450Z,101343.85
2018-11-27T06:12:47.083Z,101345.24
2018-11-27T06:15:28.371Z,101341.80
2018-11-27T06:18:09.602Z,101337.80
2018-11-27T06:20:51.035Z,101329.77
2018-11-27T06:23:32.830Z,101333.41
2018-11-27T06:38:41.430Z,101308.11
2018-11-27T06:41:22.250Z,101297.80
2018-11-27T06:44:04.475Z,101291.59
2018-11-27T06:46:45.456Z,101287.28
2018-11-27T06:49:26.718Z,101280.84
2018-11-27T06:52:07.249Z,101278.58
2018-11-27T06:54:48.650Z,101276.60
2018-11-27T06:57:29.609Z,101270.48
2018-11-27T07:00:10.890Z,101262.95
2018-11-27T07:02:51.523Z,101257.22
2018-11-27T07:05:32.518Z,101251.89
2018-11-27T07:08:13.764Z,101246.91
2018-11-27T07:10:54.204Z,101245.58
2018-11-27T07:13:35.092Z,101244.61
2018-11-27T07:16:16.228Z,101237.92
2018-11-27T07:18:57.117Z,101233.11
2018-11-27T07:21:38.367Z,101236.83
2018-11-27T07:24:20.010Z,101228.00
2018-11-27T07:27:01.296Z,101229.48
2018-11-27T07:29:41.774Z,101231.24
2018-11-27T07:32:22.400Z,101224.27
2018-11-27T07:35:03.874Z,101220.41
2018-11-27T07:37:45.214Z,101221.17
2018-11-27T07:40:25.852Z,101213.94
